createdAt,value
2023-05-10T00:01:43.913Z,20098.38
2023-05-10T00:04:12.031Z,20082.13
2023-05-10T00:06:40.238Z,20076.03
2023-05-10T00:09:08.396Z,20067.88
2023-05-10T00:11:37.880Z,20102.44
2023-05-10T00:14:06.237Z,20090.25
2023-05-10T00:16:34.416Z,20090.25
2023-05-10T00:19:02.578Z,20086.19
2023-05-10T00:21:30.760Z,20069.94
2023-05-10T00:23:59.072Z,20061.78
2023-05-10T00:26:27.405Z,20047.56
2023-05-10T00:28:57.728Z,20029.28
2023-05-10T00:31:25.891Z,20017.09
2023-05-10T00:33:54.034Z,20049.59
2023-05-10T00:36:22.176Z,20047.56
2023-05-10T00:38:50.295Z,20065.84
2023-05-10T00:41:18.608Z,20078.06
2023-05-10T00:43:46.706Z,20049.59
2023-05-10T00:46:17.748Z,20029.28
2023-05-10T00:48:46.972Z,20069.94
2023-05-10T00:51:15.971Z,20035.38
2023-05-10T00:53:45.841Z,20084.16
2023-05-10T00:56:14.744Z,20084.16
2023-05-10T00:58:43.025Z,20080.09
2023-05-10T01:01:12.782Z,20039.44
2023-05-10T01:03:42.668Z,20049.59
2023-05-10T01:06:12.240Z,20045.53
2023-05-10T01:08:41.110Z,20059.75
2023-05-10T01:11:09.416Z,20053.66
2023-05-10T01:13:40.800Z,20049.59
2023-05-10T01:16:09.381Z,20041.47
2023-05-10T01:18:42.927Z,20049.59
2023-05-10T01:21:25.628Z,20041.47
2023-05-10T01:24:38.955Z,20008.94
2023-05-10T01:27:49.750Z,20067.88
2023-05-10T01:31:14.610Z,20023.19
2023-05-10T01:33:54.192Z,20004.88
2023-05-10T01:36:32.039Z,20025.22
2023-05-10T01:39:11.125Z,20037.41
2023-05-10T01:41:49.927Z,20017.09
2023-05-10T01:44:31.339Z,20015.03
2023-05-10T01:47:09.507Z,19990.66
2023-05-10T01:49:47.276Z,20002.84
2023-05-10T01:52:21.192Z,20017.09
2023-05-10T01:54:57.717Z,20004.88
2023-05-10T01:57:33.283Z,20013.00
2023-05-10T02:00:05.176Z,20049.59
2023-05-10T02:02:38.885Z,20035.38
2023-05-10T02:05:11.211Z,19990.66
2023-05-10T02:07:40.282Z,19998.78
2023-05-10T02:10:12.036Z,20043.50
2023-05-10T02:12:45.238Z,19972.38
2023-05-10T02:15:17.238Z,20019.13
2023-05-10T02:17:48.200Z,20013.00
2023-05-10T02:20:21.053Z,19982.53
2023-05-10T02:22:52.562Z,19996.75
2023-05-10T02:25:23.980Z,19994.72
2023-05-10T02:27:56.089Z,19986.59
2023-05-10T02:30:26.081Z,19990.66
2023-05-10T02:32:55.381Z,20002.84
2023-05-10T02:35:28.110Z,19992.69
2023-05-10T02:37:59.181Z,19988.63
2023-05-10T02:40:30.305Z,19992.69
2023-05-10T02:43:02.202Z,19984.56
2023-05-10T02:45:34.215Z,19970.34
2023-05-10T02:48:02.622Z,19964.25
2023-05-10T02:50:35.428Z,19962.19
2023-05-10T02:53:11.828Z,19960.16
2023-05-10T02:55:43.151Z,19929.69
2023-05-10T02:58:11.357Z,19939.84
2023-05-10T03:00:39.567Z,19976.44
2023-05-10T03:03:07.952Z,19917.50
2023-05-10T03:05:37.483Z,19962.19
2023-05-10T03:08:07.101Z,19952.03
2023-05-10T03:10:43.308Z,19968.31
2023-05-10T03:13:30.600Z,19935.78
2023-05-10T03:16:08.783Z,19980.50
2023-05-10T03:18:46.718Z,19939.84
2023-05-10T03:21:20.001Z,19968.31
2023-05-10T03:24:00.650Z,19958.13
2023-05-10T03:26:30.970Z,19919.53
2023-05-10T03:29:00.942Z,19943.91
2023-05-10T03:31:29.496Z,19958.13
2023-05-10T03:33:57.641Z,19947.97
2023-05-10T03:36:27.289Z,19939.84
2023-05-10T03:38:55.575Z,19974.41
2023-05-10T03:41:23.936Z,19947.97
2023-05-10T03:43:52.056Z,19945.94
2023-05-10T03:46:20.187Z,19958.13
2023-05-10T03:48:48.353Z,19994.72
2023-05-10T03:51:16.580Z,19952.03
2023-05-10T03:53:46.283Z,19974.41
2023-05-10T03:56:14.366Z,19992.69
2023-05-10T03:58:42.469Z,19964.25
2023-05-10T04:01:10.608Z,20019.13
2023-05-10T04:03:39.191Z,20008.94
2023-05-10T04:06:09.992Z,20037.41
2023-05-10T04:08:38.101Z,20035.38
2023-05-10T04:11:12.615Z,20049.59
2023-05-10T04:13:40.980Z,20076.03
2023-05-10T04:16:09.152Z,20069.94
2023-05-10T04:18:37.451Z,20055.69
2023-05-10T04:21:05.834Z,20086.19
2023-05-10T04:23:33.931Z,20088.22
2023-05-10T04:26:02.992Z,20092.28
2023-05-10T04:28:32.516Z,20053.66
2023-05-10T04:31:05.446Z,20080.09
2023-05-10T04:33:34.855Z,20112.59
2023-05-10T04:36:03.230Z,20118.69
2023-05-10T04:38:31.836Z,20141.06
2023-05-10T04:41:08.239Z,20163.41
2023-05-10T04:43:38.377Z,20151.22
2023-05-10T04:46:08.074Z,20163.41
2023-05-10T04:48:36.474Z,20206.09
2023-05-10T04:51:05.813Z,20220.34
2023-05-10T04:53:34.114Z,20281.31
2023-05-10T04:56:02.295Z,20504.91
2023-05-10T04:58:30.485Z,20809.81
2023-05-10T05:01:07.191Z,20960.25
2023-05-10T05:03:35.693Z,21222.53
2023-05-10T05:06:04.328Z,21257.09
2023-05-10T05:08:32.635Z,21301.81
2023-05-10T05:11:01.286Z,21340.44
2023-05-10T05:13:29.571Z,21366.88
2023-05-10T05:15:59.319Z,21259.13
2023-05-10T05:18:27.453Z,21216.41
2023-05-10T05:20:55.530Z,21155.44
2023-05-10T05:23:25.760Z,21057.84
2023-05-10T05:25:54.392Z,21061.91
2023-05-10T05:28:23.006Z,21019.22
2023-05-10T05:30:51.164Z,21011.09
2023-05-10T05:33:20.622Z,20994.81
2023-05-10T05:35:51.616Z,20976.53
2023-05-10T05:38:19.799Z,20970.41
2023-05-10T05:40:47.971Z,20990.75
2023-05-10T05:43:16.421Z,20960.25
2023-05-10T05:45:44.602Z,20988.72
2023-05-10T05:48:12.742Z,20990.75
2023-05-10T05:50:42.193Z,20996.84
2023-05-10T05:53:11.225Z,21000.91
2023-05-10T05:55:39.362Z,21031.41
2023-05-10T05:58:07.545Z,20946.03
2023-05-10T06:00:36.152Z,20883.00
2023-05-10T06:03:04.649Z,20856.56
2023-05-10T06:05:32.797Z,20785.44
2023-05-10T06:08:03.502Z,20781.38
2023-05-10T06:10:31.793Z,20752.91
2023-05-10T06:12:59.994Z,20756.97
2023-05-10T06:15:28.793Z,20761.03
2023-05-10T06:17:56.893Z,20811.84
2023-05-10T06:20:24.990Z,20746.81
2023-05-10T06:22:53.072Z,20779.31
2023-05-10T06:25:22.642Z,20748.84
2023-05-10T06:27:53.714Z,20765.09
2023-05-10T06:30:24.075Z,20777.28
2023-05-10T06:32:52.769Z,20773.22
2023-05-10T06:35:20.992Z,20785.44
2023-05-10T06:37:49.240Z,20856.56
2023-05-10T06:40:19.233Z,20866.75
2023-05-10T06:42:48.797Z,20935.88
2023-05-10T06:45:18.283Z,20927.72
2023-05-10T06:47:46.775Z,21055.81
2023-05-10T06:50:15.204Z,21155.44
2023-05-10T06:52:44.169Z,21190.00
2023-05-10T06:55:12.731Z,21253.00
2023-05-10T06:57:40.877Z,21291.66
2023-05-10T07:00:11.661Z,21316.03
2023-05-10T07:02:39.859Z,21301.81
2023-05-10T07:05:08.730Z,21285.53
2023-05-10T07:07:36.887Z,21289.59
2023-05-10T07:10:05.723Z,21232.69
2023-05-10T07:12:33.949Z,21171.69
2023-05-10T07:15:02.151Z,21192.03
2023-05-10T07:17:31.916Z,21155.44
2023-05-10T07:20:00.174Z,21110.69
2023-05-10T07:22:28.425Z,21143.22
2023-05-10T07:24:56.966Z,21135.09
2023-05-10T07:27:25.128Z,21124.94
2023-05-10T07:29:53.369Z,21147.28
2023-05-10T07:32:21.547Z,21187.97
2023-05-10T07:34:51.158Z,21226.59
2023-05-10T07:37:19.479Z,21240.81
2023-05-10T07:39:47.625Z,21279.44
2023-05-10T07:42:15.727Z,21354.66
2023-05-10T07:44:44.280Z,21387.19
2023-05-10T07:47:12.605Z,21440.06
2023-05-10T07:49:40.861Z,21456.34
2023-05-10T07:52:10.445Z,21492.94
2023-05-10T07:54:38.860Z,21452.25
2023-05-10T07:57:07.246Z,21452.25
2023-05-10T07:59:35.412Z,21456.34
2023-05-10T08:02:03.691Z,21425.84
2023-05-10T08:04:31.895Z,21468.53
2023-05-10T08:07:00.070Z,21446.16
2023-05-10T08:09:29.580Z,21362.81
2023-05-10T08:11:57.748Z,21425.84
2023-05-10T08:14:25.841Z,21403.47
2023-05-10T08:16:54.011Z,21318.06
2023-05-10T08:19:22.449Z,21358.75
2023-05-10T08:21:50.731Z,21314.00
2023-05-10T08:24:18.844Z,21391.28
2023-05-10T08:26:48.615Z,21478.69
2023-05-10T08:29:16.987Z,21448.19
2023-05-10T08:31:45.225Z,21360.78
2023-05-10T08:34:14.523Z,21305.88
2023-05-10T08:36:42.604Z,21311.97
2023-05-10T08:39:22.806Z,21293.69
2023-05-10T08:42:06.637Z,21301.81
2023-05-10T08:44:37.255Z,21379.06
2023-05-10T08:47:08.705Z,21311.97
2023-05-10T08:49:39.221Z,21389.22
2023-05-10T08:52:10.093Z,21293.69
2023-05-10T08:54:40.044Z,21255.03
2023-05-10T08:57:09.870Z,21187.97
2023-05-10T08:59:40.302Z,21175.75
2023-05-10T09:02:12.530Z,21139.16
2023-05-10T09:04:40.898Z,21230.66
2023-05-10T09:07:09.470Z,21131.03
2023-05-10T09:09:39.045Z,21163.56
2023-05-10T09:12:12.102Z,21055.81
2023-05-10T09:14:41.297Z,20970.41
2023-05-10T09:17:09.917Z,20966.34
2023-05-10T09:19:38.099Z,20921.63
2023-05-10T09:22:06.600Z,20862.69
2023-05-10T09:24:34.709Z,20878.94
2023-05-10T09:27:04.277Z,20791.53
2023-05-10T09:29:44.572Z,20789.50
2023-05-10T09:32:13.807Z,20732.56
2023-05-10T09:34:43.234Z,20748.84
2023-05-10T09:37:11.581Z,20673.63
2023-05-10T09:39:42.252Z,20630.94
2023-05-10T09:42:12.218Z,20545.56
2023-05-10T09:44:44.329Z,20523.19
2023-05-10T09:47:12.480Z,20511.00
2023-05-10T09:49:41.194Z,20565.88
2023-05-10T09:52:11.214Z,20460.19
2023-05-10T09:54:53.987Z,20431.72
2023-05-10T09:57:23.834Z,20456.13
2023-05-10T09:59:55.244Z,20456.13
2023-05-10T10:02:30.093Z,20490.66
2023-05-10T10:04:58.370Z,20478.47
2023-05-10T10:07:27.247Z,20531.31
2023-05-10T10:09:55.773Z,20529.28
2023-05-10T10:12:24.024Z,20515.06
2023-05-10T10:14:53.750Z,20545.56
2023-05-10T10:17:23.471Z,20537.44
2023-05-10T10:19:51.815Z,20543.53
2023-05-10T10:22:20.049Z,20574.00
2023-05-10T10:24:48.194Z,20639.06
2023-05-10T10:27:27.137Z,20555.72
2023-05-10T10:30:08.702Z,20592.31
2023-05-10T10:33:10.140Z,20610.59
2023-05-10T10:35:42.335Z,20586.22
2023-05-10T10:38:10.730Z,20580.13
2023-05-10T10:40:39.453Z,20592.31
2023-05-10T10:43:28.670Z,20569.94
2023-05-10T10:46:21.757Z,20578.09
2023-05-10T10:49:10.984Z,20649.22
2023-05-10T10:51:39.724Z,20659.38
2023-05-10T10:54:12.118Z,20641.09
2023-05-10T10:56:40.478Z,20628.91
2023-05-10T10:59:09.740Z,20630.94
2023-05-10T11:01:45.375Z,20592.31
2023-05-10T11:04:21.324Z,20582.16
2023-05-10T11:06:49.586Z,20582.16
2023-05-10T11:09:18.462Z,20582.16
2023-05-10T11:11:56.122Z,20557.75
2023-05-10T11:14:25.031Z,20541.50
2023-05-10T11:16:54.759Z,20533.34
2023-05-10T11:19:22.892Z,20517.09
2023-05-10T11:21:54.730Z,20541.50
2023-05-10T11:24:25.113Z,20531.31
2023-05-10T11:26:53.477Z,20476.44
2023-05-10T11:29:22.264Z,20517.09
2023-05-10T11:31:51.636Z,20506.94
2023-05-10T11:34:31.012Z,20492.72
2023-05-10T11:36:59.776Z,20508.97
2023-05-10T11:39:32.804Z,20521.16
2023-05-10T11:42:01.877Z,20533.34
2023-05-10T11:44:32.765Z,20537.44
2023-05-10T11:47:01.983Z,20600.44
2023-05-10T11:49:31.753Z,20643.13
2023-05-10T11:52:07.612Z,20681.75
2023-05-10T11:54:36.210Z,20706.16
2023-05-10T11:57:04.919Z,20695.97
2023-05-10T11:59:33.162Z,20752.91
2023-05-10T12:02:01.661Z,20720.38
2023-05-10T12:04:31.586Z,20730.53
2023-05-10T12:06:59.939Z,20691.91
2023-05-10T12:11:59.118Z,20635.00
2023-05-10T12:14:27.275Z,20618.72
2023-05-10T12:16:55.466Z,20622.81
2023-05-10T12:19:23.652Z,20681.75
2023-05-10T12:21:53.198Z,20698.00
2023-05-10T12:24:22.500Z,20718.34
2023-05-10T12:26:50.716Z,20738.66
2023-05-10T12:29:21.000Z,20763.06
2023-05-10T12:31:57.428Z,20732.56
2023-05-10T12:34:27.779Z,20750.88
2023-05-10T12:36:57.925Z,20738.66
2023-05-10T12:39:26.394Z,20740.69
2023-05-10T12:41:54.931Z,20759.00
2023-05-10T12:44:23.311Z,20803.72
2023-05-10T12:46:51.392Z,20771.19
2023-05-10T12:49:20.535Z,20809.81
2023-05-10T12:51:48.706Z,20836.25
2023-05-10T12:54:18.217Z,20820.00
2023-05-10T12:56:46.344Z,20840.31
2023-05-10T12:59:14.444Z,20830.16
2023-05-10T13:01:42.588Z,20905.38
2023-05-10T13:04:10.808Z,20905.38
2023-05-10T13:06:39.003Z,20899.28
2023-05-10T13:09:07.173Z,20889.09
2023-05-10T13:11:37.446Z,20876.91
2023-05-10T13:14:05.591Z,20870.81
2023-05-10T13:16:34.041Z,20838.28
2023-05-10T13:19:02.297Z,20880.97
2023-05-10T13:21:30.702Z,20856.56
2023-05-10T13:23:59.006Z,20921.63
2023-05-10T13:26:27.343Z,20917.56
2023-05-10T13:28:57.441Z,20852.50
2023-05-10T13:31:25.741Z,20856.56
2023-05-10T13:33:53.944Z,20876.91
2023-05-10T13:36:22.225Z,20872.84
2023-05-10T13:38:50.338Z,20885.03
2023-05-10T13:41:18.588Z,20878.94
2023-05-10T13:43:46.785Z,20858.59
2023-05-10T13:46:16.428Z,20899.28
2023-05-10T13:48:44.576Z,20937.91
2023-05-10T13:51:13.694Z,20927.72
2023-05-10T13:53:42.422Z,20958.22
2023-05-10T13:56:10.590Z,20944.00
2023-05-10T13:58:38.731Z,20927.72
2023-05-10T14:01:06.900Z,20844.38
2023-05-10T14:03:36.547Z,20840.31
2023-05-10T14:06:04.941Z,20761.03
2023-05-10T14:08:33.113Z,20742.75
2023-05-10T14:11:01.235Z,20691.91
2023-05-10T14:13:29.651Z,20718.34
2023-05-10T14:15:57.850Z,20614.66
2023-05-10T14:18:26.814Z,20569.94
2023-05-10T14:20:56.447Z,20569.94
2023-05-10T14:23:26.710Z,20557.75
2023-05-10T14:25:54.996Z,20460.19
2023-05-10T14:28:24.597Z,20423.59
2023-05-10T14:30:53.022Z,20407.34
2023-05-10T14:33:21.787Z,20399.19
2023-05-10T14:35:50.199Z,20439.84
2023-05-10T14:38:19.806Z,20421.56
2023-05-10T14:40:47.992Z,20403.25
2023-05-10T14:43:16.217Z,20425.63
2023-05-10T14:45:44.416Z,20445.94
2023-05-10T14:48:16.322Z,20470.34
2023-05-10T14:50:44.505Z,20492.72
2023-05-10T14:53:12.744Z,20445.94
2023-05-10T14:55:42.421Z,20486.59
2023-05-10T14:58:10.624Z,20498.81
2023-05-10T15:00:38.868Z,20498.81
2023-05-10T15:03:07.716Z,20525.22
2023-05-10T15:05:38.188Z,20519.13
2023-05-10T15:08:06.883Z,20508.97
2023-05-10T15:10:35.167Z,20492.72
2023-05-10T15:13:05.788Z,20500.84
2023-05-10T15:15:34.290Z,20472.38
2023-05-10T15:18:02.557Z,20441.88
2023-05-10T15:20:30.754Z,20411.41
2023-05-10T15:22:58.868Z,20462.22
2023-05-10T15:25:27.034Z,20399.19
2023-05-10T15:27:55.529Z,20360.59
2023-05-10T15:30:25.118Z,20303.66
2023-05-10T15:32:53.314Z,20313.84
2023-05-10T15:35:21.541Z,20281.31
2023-05-10T15:37:50.311Z,20246.75
2023-05-10T15:40:18.713Z,20277.25
2023-05-10T15:42:46.868Z,20256.91
2023-05-10T15:45:16.300Z,20234.56
2023-05-10T15:47:46.335Z,20242.69
2023-05-10T15:50:14.602Z,20246.75
2023-05-10T15:52:43.248Z,20250.81
2023-05-10T15:55:13.068Z,20234.56
2023-05-10T15:57:42.386Z,20240.66
2023-05-10T16:00:13.575Z,20267.09
2023-05-10T16:02:41.949Z,20242.69
2023-05-10T16:05:12.012Z,20228.47
2023-05-10T16:07:41.667Z,20246.75
2023-05-10T16:10:12.418Z,20289.44
2023-05-10T16:12:40.931Z,20210.16
2023-05-10T16:15:10.618Z,20256.91
2023-05-10T16:17:38.836Z,20202.03
2023-05-10T16:20:08.999Z,20236.59
2023-05-10T16:22:38.808Z,20197.97
2023-05-10T16:25:08.296Z,20222.38
2023-05-10T16:27:36.455Z,20277.25
2023-05-10T16:30:05.050Z,20305.69
2023-05-10T16:32:33.398Z,20258.94
2023-05-10T16:35:01.627Z,20303.66
2023-05-10T16:37:30.152Z,20263.00
2023-05-10T16:39:59.679Z,20297.56
2023-05-10T16:42:28.936Z,20252.84
2023-05-10T16:44:57.158Z,20271.16
2023-05-10T16:47:26.835Z,20285.38
2023-05-10T16:49:55.126Z,20244.72
2023-05-10T16:52:23.780Z,20260.97
2023-05-10T16:54:51.955Z,20265.03
2023-05-10T16:57:21.436Z,20269.13
2023-05-10T16:59:49.887Z,20283.34
2023-05-10T17:02:18.077Z,20248.78
2023-05-10T17:04:46.291Z,20281.31
2023-05-10T17:07:15.092Z,20279.28
2023-05-10T17:09:44.161Z,20265.03
2023-05-10T17:12:12.476Z,20214.22
2023-05-10T17:14:41.941Z,20267.09
2023-05-10T17:17:10.140Z,20265.03
2023-05-10T17:19:38.381Z,20263.00
2023-05-10T17:22:06.635Z,20228.47
2023-05-10T17:24:34.803Z,20216.25
2023-05-10T17:27:03.577Z,20244.72
2023-05-10T17:29:32.116Z,20204.06
2023-05-10T17:32:02.014Z,20200.00
2023-05-10T17:34:30.251Z,20224.41
2023-05-10T17:36:58.627Z,20183.75
2023-05-10T17:39:26.761Z,20181.72
2023-05-10T17:41:54.947Z,20197.97
2023-05-10T17:44:23.067Z,20177.66
2023-05-10T17:46:51.214Z,20159.34
2023-05-10T17:49:20.696Z,20157.31
2023-05-10T17:51:48.974Z,20153.25
2023-05-10T17:54:17.138Z,20132.94
2023-05-10T17:56:45.336Z,20185.78
2023-05-10T17:59:13.475Z,20159.34
2023-05-10T18:01:42.285Z,20149.19
2023-05-10T18:04:10.420Z,20090.25
2023-05-10T18:06:40.590Z,20118.69
2023-05-10T18:09:08.720Z,20108.53
2023-05-10T18:11:38.569Z,20110.56
2023-05-10T18:14:06.902Z,20090.25
2023-05-10T18:16:35.042Z,20078.06
2023-05-10T18:19:03.626Z,20045.53
2023-05-10T18:21:32.642Z,20061.78
2023-05-10T18:24:02.902Z,20082.13
2023-05-10T18:26:31.515Z,20055.69
2023-05-10T18:29:01.371Z,20069.94
2023-05-10T18:31:30.040Z,20078.06
2023-05-10T18:33:58.231Z,20047.56
2023-05-10T18:36:28.142Z,19994.72
2023-05-10T18:38:56.481Z,20017.09
2023-05-10T18:41:26.745Z,19986.59
2023-05-10T18:43:55.220Z,19990.66
2023-05-10T18:46:24.074Z,19984.56
2023-05-10T18:48:52.292Z,19966.28
2023-05-10T18:51:21.053Z,19966.28
2023-05-10T18:53:49.335Z,19986.59
2023-05-10T18:56:17.521Z,19939.84
2023-05-10T18:58:47.019Z,19952.03
2023-05-10T19:01:15.290Z,19958.13
2023-05-10T19:03:43.429Z,19962.19
2023-05-10T19:06:12.510Z,19933.75
2023-05-10T19:08:40.644Z,19899.19
2023-05-10T19:11:08.765Z,19939.84
2023-05-10T19:13:37.097Z,19897.16
2023-05-10T19:16:12.812Z,19929.69
2023-05-10T19:18:41.506Z,19903.25
2023-05-10T19:21:11.154Z,19925.63
2023-05-10T19:23:41.568Z,19913.44
2023-05-10T19:26:10.923Z,19891.06
2023-05-10T19:28:39.350Z,19905.28
2023-05-10T19:31:09.530Z,19882.94
2023-05-10T19:33:38.464Z,19880.91
2023-05-10T19:36:09.203Z,19872.78
2023-05-10T19:38:38.410Z,19838.22
2023-05-10T19:41:06.548Z,19840.25
2023-05-10T19:43:38.375Z,19860.59
2023-05-10T19:46:09.673Z,19846.34
2023-05-10T19:48:38.779Z,19826.03
2023-05-10T19:51:09.907Z,19824.00
2023-05-10T19:53:39.940Z,19813.84
2023-05-10T19:56:08.792Z,19767.09
2023-05-10T19:58:37.745Z,19811.81
2023-05-10T20:01:07.721Z,19801.66
2023-05-10T20:03:37.723Z,19795.53
2023-05-10T20:06:06.083Z,19779.28
2023-05-10T20:08:34.233Z,19793.50
2023-05-10T20:11:03.717Z,19779.28
2023-05-10T20:13:31.976Z,19801.66
2023-05-10T20:16:02.124Z,19785.38
2023-05-10T20:18:30.345Z,19769.13
2023-05-10T20:21:01.961Z,19797.59
2023-05-10T20:23:30.144Z,19813.84
2023-05-10T20:25:58.345Z,19754.91
2023-05-10T20:28:27.486Z,19756.94
2023-05-10T20:30:57.394Z,19779.28
2023-05-10T20:33:25.680Z,19726.44
2023-05-10T20:35:53.813Z,19752.88
2023-05-10T20:38:23.369Z,19740.69
2023-05-10T20:40:51.830Z,19722.38
2023-05-10T20:43:21.325Z,19744.75
2023-05-10T20:45:49.829Z,19744.75
2023-05-10T20:48:19.624Z,19752.88
2023-05-10T20:50:47.923Z,19728.47
2023-05-10T20:53:16.090Z,19698.00
2023-05-10T20:55:45.561Z,19728.47
2023-05-10T20:58:13.734Z,19704.09
2023-05-10T21:00:41.900Z,19708.16
2023-05-10T21:03:10.071Z,19720.34
2023-05-10T21:05:38.197Z,19730.50
2023-05-10T21:08:07.176Z,19720.34
2023-05-10T21:10:35.321Z,19801.66
2023-05-10T21:13:04.934Z,19744.75
2023-05-10T21:15:33.090Z,19716.28
2023-05-10T21:18:01.514Z,19744.75
2023-05-10T21:20:30.486Z,19736.59
2023-05-10T21:22:58.699Z,19712.22
2023-05-10T21:25:26.991Z,19698.00
2023-05-10T21:27:55.184Z,19689.88
2023-05-10T21:30:24.946Z,19728.47
2023-05-10T21:32:55.113Z,19761.00
2023-05-10T21:35:23.279Z,19704.09
2023-05-10T21:37:51.377Z,19712.22
2023-05-10T21:40:20.229Z,19714.25
2023-05-10T21:42:49.486Z,19714.25
2023-05-10T21:45:18.087Z,19681.75
2023-05-10T21:47:47.723Z,19681.75
2023-05-10T21:50:15.975Z,19675.63
2023-05-10T21:52:44.176Z,19706.13
2023-05-10T21:55:12.294Z,19655.31
2023-05-10T21:57:41.213Z,19669.53
2023-05-10T22:00:11.477Z,19677.66
2023-05-10T22:02:39.631Z,19661.41
2023-05-10T22:05:10.427Z,19647.19
2023-05-10T22:07:38.610Z,19653.28
2023-05-10T22:10:08.360Z,19651.25
2023-05-10T22:12:36.695Z,19649.22
2023-05-10T22:17:36.785Z,19657.34
2023-05-10T22:20:06.225Z,19624.84
2023-05-10T22:22:36.490Z,19612.63
2023-05-10T22:25:05.161Z,19618.75
2023-05-10T22:27:33.260Z,19569.97
2023-05-10T22:30:01.589Z,19608.56
2023-05-10T22:32:29.845Z,19582.16
2023-05-10T22:34:58.018Z,19557.78
2023-05-10T22:37:26.152Z,19563.88
2023-05-10T22:39:55.621Z,19574.03
2023-05-10T22:42:23.728Z,19590.28
2023-05-10T22:44:52.038Z,19553.72
2023-05-10T22:47:20.128Z,19576.06
2023-05-10T22:49:48.402Z,19561.84
2023-05-10T22:52:16.484Z,19539.47
2023-05-10T22:54:45.120Z,19537.44
2023-05-10T22:57:15.019Z,19543.53
2023-05-10T22:59:43.398Z,19549.63
2023-05-10T23:02:11.700Z,19565.91
2023-05-10T23:04:39.830Z,19511.03
2023-05-10T23:07:07.994Z,19535.41
2023-05-10T23:09:36.063Z,19543.53
2023-05-10T23:12:04.358Z,19549.63
2023-05-10T23:14:33.765Z,19504.94
2023-05-10T23:17:01.917Z,19517.13
2023-05-10T23:19:30.043Z,19494.78
2023-05-10T23:21:59.310Z,19502.91
2023-05-10T23:24:27.404Z,19500.88
2023-05-10T23:26:55.569Z,19541.50
2023-05-10T23:29:26.176Z,19492.75
2023-05-10T23:31:55.802Z,19533.38
2023-05-10T23:34:23.998Z,19492.75
2023-05-10T23:36:52.074Z,19476.47
2023-05-10T23:39:20.164Z,19527.28
2023-05-10T23:41:48.241Z,19492.75
2023-05-10T23:44:16.629Z,19502.91
2023-05-10T23:46:44.736Z,19515.09
2023-05-10T23:49:14.195Z,19500.88
2023-05-10T23:51:42.282Z,19533.38
2023-05-10T23:54:10.448Z,19494.78
2023-05-10T23:56:38.581Z,19470.38
2023-05-10T23:59:06.690Z,19492.75
